Aigaion — SYMC — position and weather

sailwx.info

Track history (hours):
 
Tides and Currents Weather Stations Pressure Air Temp Water Temp Dewpoint Dewpoint Depression Visibility Wind Speed Wind Dir Waves Ship Positions

Aigaion

Last reported at 2014-Dec-06 10:28 UTC. Time now 2014-Dec-22 07:06 UTC.
Position N 22°10' E 114°09'.
Warning: this ship's position is 15 days out of date.

Length 289 m; draft 17.8 m.

Type: Cargo ship. MMSI: 240174000.

Date/timePositionNaut miles runAvg speedWind from/ knotsBaromVisibWave heightAir tempDewpointWater temp
2014-Dec-06 10:28N 22°10' E 114°09'0 0.0
2014-Dec-06 00:16N 22°10' E 114°09'0 0.0
2014-Dec-05 23:28N 22°10' E 114°09'0 0.0
2014-Dec-05 22:10N 22°10' E 114°09'1 0.1
2014-Dec-05 16:18N 22°09' E 114°10'  
2014-Nov-29 22:05N 38°22' E 121°31'178 3.9
2014-Nov-28 00:22N 38°58' E 117°48'0 0.0
2014-Nov-27 23:28N 38°58' E 117°48'0 0.0
2014-Nov-27 22:16N 38°58' E 117°48'0 0.0
2014-Nov-27 21:28N 38°58' E 117°48'0 0.0
2014-Nov-27 20:28N 38°58' E 117°48'0 0.0
2014-Nov-27 19:28N 38°58' E 117°48'0 0.0
2014-Nov-27 18:28N 38°58' E 117°48'0 0.0
2014-Nov-27 17:28N 38°58' E 117°48'0 0.0
2014-Nov-27 16:10N 38°58' E 117°48'0 0.0
2014-Nov-27 15:22N 38°58' E 117°48'0 0.0
2014-Nov-27 14:04N 38°58' E 117°48'0 0.0
2014-Nov-27 13:28N 38°58' E 117°48'0 0.0
2014-Nov-27 12:28N 38°58' E 117°48'0 0.0
2014-Nov-27 11:22N 38°58' E 117°48'0 0.0
2014-Nov-27 10:04N 38°58' E 117°48'0 0.0
2014-Nov-27 09:28N 38°58' E 117°48'0 0.0
2014-Nov-27 08:28N 38°58' E 117°48'3 3.5
2014-Nov-27 07:31N 38°58' E 117°52'9 9.6
2014-Nov-27 06:33N 38°56' E 118°03'11 0.6
2014-Nov-26 11:05N 38°49' E 118°14'  
Track history (hours):
 
Tides and Currents Weather Stations Pressure Air Temp Water Temp Dewpoint Dewpoint Depression Visibility Wind Speed Wind Dir Waves Ship Positions

Aigaion

Last reported at 2014-Dec-06 10:28 UTC. Time now 2014-Dec-22 07:06 UTC.
Position N 22°10' E 114°09'.
Warning: this ship's position is 15 days out of date.

Length 289 m; draft 17.8 m.

Type: Cargo ship. MMSI: 240174000.

Date/timePositionNaut miles runAvg speedWind from/ knotsBaromVisibWave heightAir tempDewpointWater temp
2014-Dec-06 10:28N 22°10' E 114°09'0 0.0
2014-Dec-06 00:16N 22°10' E 114°09'0 0.0
2014-Dec-05 23:28N 22°10' E 114°09'0 0.0
2014-Dec-05 22:10N 22°10' E 114°09'1 0.1
2014-Dec-05 16:18N 22°09' E 114°10'  
2014-Nov-29 22:05N 38°22' E 121°31'178 3.9
2014-Nov-28 00:22N 38°58' E 117°48'0 0.0
2014-Nov-27 23:28N 38°58' E 117°48'0 0.0
2014-Nov-27 22:16N 38°58' E 117°48'0 0.0
2014-Nov-27 21:28N 38°58' E 117°48'0 0.0
2014-Nov-27 20:28N 38°58' E 117°48'0 0.0
2014-Nov-27 19:28N 38°58' E 117°48'0 0.0
2014-Nov-27 18:28N 38°58' E 117°48'0 0.0
2014-Nov-27 17:28N 38°58' E 117°48'0 0.0
2014-Nov-27 16:10N 38°58' E 117°48'0 0.0
2014-Nov-27 15:22N 38°58' E 117°48'0 0.0
2014-Nov-27 14:04N 38°58' E 117°48'0 0.0
2014-Nov-27 13:28N 38°58' E 117°48'0 0.0
2014-Nov-27 12:28N 38°58' E 117°48'0 0.0
2014-Nov-27 11:22N 38°58' E 117°48'0 0.0
2014-Nov-27 10:04N 38°58' E 117°48'0 0.0
2014-Nov-27 09:28N 38°58' E 117°48'0 0.0
2014-Nov-27 08:28N 38°58' E 117°48'3 3.5
2014-Nov-27 07:31N 38°58' E 117°52'9 9.6
2014-Nov-27 06:33N 38°56' E 118°03'11 0.6
2014-Nov-26 11:05N 38°49' E 118°14'  

Dump ship's entire track history